createdAt,value
2019-05-02T00:01:21.555Z,66.40
2019-05-02T00:04:25.902Z,66.10
2019-05-02T00:07:30.338Z,66.00
2019-05-02T00:10:35.952Z,65.70
2019-05-02T00:13:40.186Z,65.20
2019-05-02T00:16:45.086Z,65.30
2019-05-02T00:19:51.287Z,64.80
2019-05-02T00:22:55.815Z,64.10
2019-05-02T00:26:00.225Z,64.40
2019-05-02T00:29:04.577Z,64.50
2019-05-02T00:32:08.940Z,64.40
2019-05-02T00:35:13.642Z,64.70
2019-05-02T00:38:17.905Z,64.90
2019-05-02T00:41:22.194Z,64.70
2019-05-02T00:44:26.441Z,64.70
2019-05-02T00:47:47.917Z,64.70
2019-05-02T00:50:52.534Z,65.10
2019-05-02T00:53:56.901Z,65.00
2019-05-02T00:57:01.110Z,65.20
2019-05-02T01:00:06.428Z,66.10
2019-05-02T01:03:11.076Z,67.00
2019-05-02T01:06:17.100Z,66.80
2019-05-02T01:09:21.402Z,66.40
2019-05-02T01:12:26.811Z,66.90
2019-05-02T01:15:31.433Z,66.80
2019-05-02T01:18:37.107Z,67.30
2019-05-02T01:21:41.791Z,67.80
2019-05-02T01:24:46.109Z,68.20
2019-05-02T01:28:12.634Z,65.60
2019-05-02T01:31:21.266Z,65.40
2019-05-02T01:34:49.092Z,65.30
2019-05-02T01:38:14.557Z,65.40
2019-05-02T01:41:18.878Z,65.00
2019-05-02T01:44:23.202Z,64.80
2019-05-02T01:47:29.157Z,65.00
2019-05-02T01:50:34.695Z,64.90
2019-05-02T01:53:39.123Z,64.90
2019-05-02T01:56:43.430Z,65.10
2019-05-02T01:59:47.802Z,65.20
2019-05-02T02:02:52.151Z,65.10
2019-05-02T02:05:56.421Z,64.80
2019-05-02T02:09:03.407Z,64.80
2019-05-02T02:12:09.853Z,64.90
2019-05-02T02:15:12.745Z,65.00
2019-05-02T02:18:22.266Z,65.40
2019-05-02T02:21:46.096Z,65.30
2019-05-02T02:25:09.332Z,65.00
2019-05-02T02:28:13.687Z,65.50
2019-05-02T02:31:20.377Z,65.80
2019-05-02T02:34:29.408Z,65.70
2019-05-02T02:37:30.632Z,65.20
2019-05-02T02:40:35.718Z,65.20
2019-05-02T02:43:40.200Z,66.40
2019-05-02T02:46:45.773Z,66.60
2019-05-02T02:49:55.859Z,66.50
2019-05-02T02:52:56.137Z,66.80
2019-05-02T02:56:03.774Z,66.50
2019-05-02T02:59:07.747Z,67.20
2019-05-02T03:02:12.345Z,67.50
2019-05-02T03:05:18.968Z,67.60
2019-05-02T03:08:23.029Z,67.80
2019-05-02T03:11:29.945Z,67.40
2019-05-02T03:14:41.006Z,66.80
2019-05-02T03:17:42.074Z,67.40
2019-05-02T03:20:46.358Z,66.80
2019-05-02T03:24:01.442Z,66.80
2019-05-02T03:26:58.401Z,66.80
2019-05-02T03:30:02.782Z,66.90
2019-05-02T03:33:11.614Z,66.90
2019-05-02T03:36:27.957Z,67.10
2019-05-02T03:39:19.163Z,67.10
2019-05-02T03:42:23.485Z,67.50
2019-05-02T03:45:32.341Z,67.50
2019-05-02T03:48:34.039Z,67.20
2019-05-02T03:51:38.224Z,67.00
2019-05-02T03:54:50.155Z,66.60
2019-05-02T03:57:48.546Z,68.00
2019-05-02T04:01:00.359Z,68.60
2019-05-02T04:03:58.785Z,68.20
2019-05-02T04:07:04.072Z,68.60
2019-05-02T04:10:13.381Z,68.80
2019-05-02T04:13:15.246Z,67.80
2019-05-02T04:16:20.494Z,68.60
2019-05-02T04:19:28.683Z,69.70
2019-05-02T04:22:31.906Z,69.60
2019-05-02T04:25:36.743Z,70.80
2019-05-02T04:28:45.451Z,70.20
2019-05-02T04:31:46.960Z,70.90
2019-05-02T04:34:55.786Z,71.10
2019-05-02T04:37:59.092Z,71.40
2019-05-02T04:41:03.178Z,70.10
2019-05-02T04:44:09.130Z,71.10
2019-05-02T04:47:17.436Z,70.20
2019-05-02T04:50:25.027Z,71.00
2019-05-02T04:53:36.664Z,70.10
2019-05-02T04:56:32.260Z,71.20
2019-05-02T04:59:39.223Z,69.30
2019-05-02T05:02:42.485Z,69.20
2019-05-02T05:05:48.255Z,69.10
2019-05-02T05:08:52.712Z,69.20
2019-05-02T05:11:58.953Z,69.20
2019-05-02T05:15:07.869Z,69.10
2019-05-02T05:18:14.403Z,70.40
2019-05-02T05:21:18.113Z,71.10
2019-05-02T05:24:38.555Z,70.80
2019-05-02T05:27:41.316Z,70.90
2019-05-02T05:31:04.726Z,71.00
2019-05-02T05:34:09.889Z,70.50
2019-05-02T05:37:14.469Z,70.90
2019-05-02T05:40:22.582Z,71.40
2019-05-02T05:43:24.896Z,70.70
2019-05-02T05:46:33.378Z,70.80
2019-05-02T05:49:37.434Z,71.20
2019-05-02T05:52:42.534Z,71.00
2019-05-02T05:55:47.442Z,71.40
2019-05-02T05:58:52.599Z,71.60
2019-05-02T06:01:57.920Z,72.10
2019-05-02T06:05:03.909Z,72.40
2019-05-02T06:08:09.486Z,72.70
2019-05-02T06:11:14.966Z,73.30
2019-05-02T06:14:24.955Z,73.30
2019-05-02T06:17:28.663Z,73.30
2019-05-02T06:20:33.433Z,73.00
2019-05-02T06:23:41.260Z,72.60
2019-05-02T06:26:44.801Z,71.50
2019-05-02T06:29:51.130Z,70.60
2019-05-02T06:32:57.007Z,70.90
2019-05-02T06:36:03.015Z,71.00
2019-05-02T06:39:08.548Z,70.50
2019-05-02T06:42:13.359Z,70.40
2019-05-02T06:45:18.800Z,70.00
2019-05-02T06:48:23.334Z,70.00
2019-05-02T06:51:28.230Z,70.20
2019-05-02T06:54:34.239Z,70.50
2019-05-02T06:57:38.704Z,70.80
2019-05-02T07:00:56.371Z,71.20
2019-05-02T07:03:55.474Z,70.10
2019-05-02T07:07:00.364Z,69.70
2019-05-02T07:10:07.329Z,70.10
2019-05-02T07:13:15.115Z,70.80
2019-05-02T07:16:38.797Z,71.00
2019-05-02T07:19:48.815Z,70.50
2019-05-02T07:22:55.082Z,69.80
2019-05-02T07:26:00.321Z,69.50
2019-05-02T07:29:05.799Z,69.60
2019-05-02T07:32:10.855Z,70.00
2019-05-02T07:35:19.223Z,70.80
2019-05-02T07:38:25.562Z,69.90
2019-05-02T07:41:28.928Z,69.90
2019-05-02T07:44:34.501Z,69.10
2019-05-02T07:47:40.371Z,68.20
2019-05-02T07:50:46.462Z,68.00
2019-05-02T07:53:55.245Z,69.00
2019-05-02T07:56:58.630Z,68.70
2019-05-02T08:00:03.394Z,67.80
2019-05-02T08:03:09.848Z,68.00
2019-05-02T08:06:14.308Z,68.20
2019-05-02T08:09:21.787Z,68.70
2019-05-02T08:12:26.319Z,68.30
2019-05-02T08:15:32.357Z,67.30
2019-05-02T08:18:36.944Z,67.30
2019-05-02T08:21:43.451Z,66.60
2019-05-02T08:24:49.075Z,67.10
2019-05-02T08:27:58.855Z,66.10
2019-05-02T08:31:03.769Z,65.90
2019-05-02T08:34:14.680Z,63.50
2019-05-02T08:37:16.071Z,62.80
2019-05-02T08:40:20.792Z,63.70
2019-05-02T08:43:25.280Z,65.50
2019-05-02T08:46:30.170Z,62.20
2019-05-02T08:49:34.606Z,62.60
2019-05-02T08:52:42.762Z,63.90
2019-05-02T08:55:48.241Z,63.90
2019-05-02T08:58:53.456Z,62.70
2019-05-02T09:01:57.900Z,62.00
2019-05-02T09:05:04.599Z,60.00
2019-05-02T09:08:09.350Z,60.90
2019-05-02T09:11:15.889Z,62.10
2019-05-02T09:14:21.665Z,61.60
2019-05-02T09:17:36.016Z,60.90
2019-05-02T09:20:33.423Z,61.60
2019-05-02T09:23:41.118Z,62.40
2019-05-02T09:26:44.799Z,61.90
2019-05-02T09:29:51.828Z,60.70
2019-05-02T09:32:57.231Z,61.00
2019-05-02T09:36:04.042Z,60.60
2019-05-02T09:39:11.856Z,59.90
2019-05-02T09:42:19.086Z,60.10
2019-05-02T09:45:35.489Z,60.00
2019-05-02T09:48:34.723Z,59.80
2019-05-02T09:51:39.263Z,59.70
2019-05-02T09:54:46.086Z,59.50
2019-05-02T09:57:51.904Z,59.00
2019-05-02T10:01:27.861Z,59.10
2019-05-02T10:04:32.658Z,59.50
2019-05-02T10:07:37.133Z,59.40
2019-05-02T10:10:45.863Z,58.60
2019-05-02T10:13:48.356Z,59.10
2019-05-02T10:16:53.156Z,59.90
2019-05-02T10:19:58.308Z,59.80
2019-05-02T10:23:03.161Z,59.70
2019-05-02T10:26:07.883Z,59.40
2019-05-02T10:29:12.991Z,59.20
2019-05-02T10:32:17.503Z,59.20
2019-05-02T10:35:28.084Z,59.50
2019-05-02T10:38:32.618Z,59.20
2019-05-02T10:41:39.649Z,59.60
2019-05-02T10:44:43.814Z,60.10
2019-05-02T10:47:48.297Z,60.00
2019-05-02T10:50:53.900Z,59.40
2019-05-02T10:53:58.566Z,60.00
2019-05-02T10:57:03.975Z,60.50
2019-05-02T11:00:12.110Z,60.90
2019-05-02T11:03:26.399Z,60.80
2019-05-02T11:06:32.440Z,61.20
2019-05-02T11:09:37.106Z,61.70
2019-05-02T11:12:50.082Z,62.20
2019-05-02T11:16:19.318Z,62.80
2019-05-02T11:19:52.632Z,63.40
2019-05-02T11:22:57.255Z,64.00
2019-05-02T11:26:01.824Z,64.20
2019-05-02T11:29:07.158Z,64.50
2019-05-02T11:32:12.810Z,65.00
2019-05-02T11:35:33.059Z,65.70
2019-05-02T11:39:13.371Z,65.70
2019-05-02T11:42:05.381Z,65.90
2019-05-02T11:45:12.077Z,66.00
2019-05-02T11:48:19.788Z,66.30
2019-05-02T11:51:23.976Z,66.30
2019-05-02T11:54:28.539Z,66.20
2019-05-02T11:57:33.580Z,67.10
2019-05-02T12:00:45.354Z,68.40
2019-05-02T12:03:52.439Z,68.70
2019-05-02T12:07:01.154Z,69.10
2019-05-02T12:10:04.694Z,70.10
2019-05-02T12:13:15.763Z,71.60
2019-05-02T12:16:17.768Z,71.20
2019-05-02T12:19:22.934Z,71.00
2019-05-02T12:22:27.513Z,71.30
2019-05-02T12:25:32.834Z,70.50
2019-05-02T12:28:38.120Z,69.80
2019-05-02T12:31:42.831Z,68.30
2019-05-02T12:34:49.385Z,68.60
2019-05-02T12:37:55.342Z,67.90
2019-05-02T12:40:59.891Z,68.40
2019-05-02T12:44:05.365Z,67.40
2019-05-02T12:47:11.761Z,67.00
2019-05-02T12:50:16.464Z,66.80
2019-05-02T12:53:21.973Z,66.90
2019-05-02T12:56:26.803Z,66.60
2019-05-02T12:59:32.192Z,67.60
2019-05-02T13:02:55.760Z,67.30
2019-05-02T13:06:00.343Z,67.70
2019-05-02T13:09:12.846Z,69.20
2019-05-02T13:12:23.313Z,69.70
2019-05-02T13:15:27.994Z,70.40
2019-05-02T13:18:36.929Z,72.50
2019-05-02T13:21:50.282Z,74.50
2019-05-02T13:24:56.330Z,74.50
2019-05-02T13:28:01.971Z,75.90
2019-05-02T13:31:42.724Z,75.30
2019-05-02T13:34:55.495Z,76.20
2019-05-02T13:38:02.738Z,77.30
2019-05-02T13:41:07.506Z,77.20
2019-05-02T13:44:14.078Z,77.50
2019-05-02T13:47:21.840Z,77.30
2019-05-02T13:50:27.667Z,76.80
2019-05-02T13:53:32.787Z,76.50
2019-05-02T13:56:52.365Z,77.30
2019-05-02T13:59:56.322Z,76.70
2019-05-02T14:03:02.886Z,77.30
2019-05-02T14:06:07.491Z,76.90
2019-05-02T14:09:44.023Z,76.80
2019-05-02T14:12:59.970Z,77.30
2019-05-02T14:16:04.704Z,76.70
2019-05-02T14:19:12.474Z,77.50
2019-05-02T14:22:16.662Z,76.80
2019-05-02T14:25:22.304Z,76.90
2019-05-02T14:28:31.206Z,76.90
2019-05-02T14:31:33.224Z,77.00
2019-05-02T14:34:48.515Z,77.70
2019-05-02T14:38:09.854Z,77.70
2019-05-02T14:41:17.212Z,76.70
2019-05-02T14:44:23.294Z,76.80
2019-05-02T14:47:28.047Z,76.40
2019-05-02T14:50:36.550Z,77.60
2019-05-02T14:53:38.949Z,76.90
2019-05-02T14:56:58.832Z,76.20
2019-05-02T15:00:03.810Z,76.40
2019-05-02T15:03:08.382Z,76.20
2019-05-02T15:06:12.843Z,76.50
2019-05-02T15:09:22.656Z,76.10
2019-05-02T15:12:23.849Z,76.50
2019-05-02T15:15:33.952Z,76.70
2019-05-02T15:18:37.221Z,76.50
2019-05-02T15:21:47.031Z,76.30
2019-05-02T15:24:50.414Z,76.80
2019-05-02T15:27:59.924Z,76.80
2019-05-02T15:31:07.172Z,76.50
2019-05-02T15:34:26.831Z,75.90
2019-05-02T15:37:35.633Z,75.60
2019-05-02T15:40:47.312Z,76.90
2019-05-02T15:43:49.091Z,75.90
2019-05-02T15:46:52.415Z,76.50
2019-05-02T15:49:56.944Z,75.80
2019-05-02T15:53:25.090Z,75.60
2019-05-02T15:57:00.307Z,74.90
2019-05-02T16:00:01.538Z,75.50
2019-05-02T16:03:05.861Z,74.30
2019-05-02T16:06:16.470Z,74.70
2019-05-02T16:09:21.501Z,75.50
2019-05-02T16:12:27.201Z,76.30
2019-05-02T16:15:32.616Z,75.40
2019-05-02T16:18:40.937Z,76.40
2019-05-02T16:21:49.260Z,76.80
2019-05-02T16:24:56.411Z,76.30
2019-05-02T16:28:02.732Z,76.70
2019-05-02T16:31:09.503Z,76.80
2019-05-02T16:34:15.028Z,77.80
2019-05-02T16:37:19.977Z,78.00
2019-05-02T16:40:29.817Z,77.10
2019-05-02T16:44:35.852Z,76.00
2019-05-02T16:47:42.369Z,76.40
2019-05-02T16:50:47.222Z,76.80
2019-05-02T16:54:04.916Z,76.80
2019-05-02T16:57:09.984Z,77.00
2019-05-02T17:04:03.200Z,76.10
2019-05-02T17:07:13.600Z,76.90
2019-05-02T17:10:29.532Z,77.20
2019-05-02T17:13:38.572Z,76.30
2019-05-02T17:17:26.524Z,76.70
2019-05-02T17:20:33.658Z,76.00
2019-05-02T17:23:56.442Z,75.30
2019-05-02T17:31:25.976Z,75.90
2019-05-02T17:34:35.057Z,75.60
2019-05-02T17:37:40.602Z,75.90
2019-05-02T17:41:07.949Z,76.00
2019-05-02T17:44:12.821Z,75.30
2019-05-02T17:47:38.140Z,75.60
2019-05-02T17:51:12.430Z,74.90
2019-05-02T17:54:17.548Z,75.10
2019-05-02T17:57:23.252Z,75.60
2019-05-02T18:00:29.417Z,75.80
2019-05-02T18:03:35.313Z,75.60
2019-05-02T18:06:41.689Z,75.70
2019-05-02T18:09:48.632Z,76.30
2019-05-02T18:12:56.710Z,76.10
2019-05-02T18:15:59.482Z,76.40
2019-05-02T18:19:04.609Z,76.60
2019-05-02T18:22:22.471Z,76.60
2019-05-02T18:25:16.249Z,76.80
2019-05-02T18:28:26.137Z,76.90
2019-05-02T18:31:28.515Z,77.40
2019-05-02T18:34:33.037Z,77.60
2019-05-02T18:41:06.186Z,77.10
2019-05-02T18:44:42.028Z,76.30
2019-05-02T18:47:46.896Z,76.00
2019-05-02T18:50:52.675Z,75.40
2019-05-02T18:53:57.831Z,74.90
2019-05-02T18:57:26.004Z,75.00
2019-05-02T19:00:35.502Z,75.20
2019-05-02T19:03:39.437Z,76.10
2019-05-02T19:06:46.859Z,76.70
2019-05-02T19:09:53.971Z,77.30
2019-05-02T19:13:01.053Z,77.70
2019-05-02T19:16:04.841Z,78.30
2019-05-02T19:19:09.360Z,78.10
2019-05-02T19:22:17.055Z,78.20
2019-05-02T19:25:20.102Z,78.10
2019-05-02T19:28:36.808Z,77.90
2019-05-02T19:31:46.153Z,77.70
2019-05-02T19:34:50.760Z,77.10
2019-05-02T19:37:55.497Z,76.40
2019-05-02T19:41:05.465Z,75.80
2019-05-02T19:44:06.350Z,75.70
2019-05-02T19:47:15.634Z,73.90
2019-05-02T19:50:41.632Z,73.40
2019-05-02T19:53:44.871Z,73.20
2019-05-02T19:56:49.779Z,73.60
2019-05-02T19:59:57.176Z,73.80
2019-05-02T20:03:02.633Z,73.70
2019-05-02T20:06:07.090Z,73.20
2019-05-02T20:09:11.813Z,73.10
2019-05-02T20:12:16.460Z,73.70
2019-05-02T20:15:26.834Z,74.10
2019-05-02T20:18:28.250Z,74.60
2019-05-02T20:22:02.817Z,74.90
2019-05-02T20:25:05.902Z,75.00
2019-05-02T20:28:11.147Z,74.90
2019-05-02T20:31:16.390Z,75.00
2019-05-02T20:34:22.209Z,75.30
2019-05-02T20:37:27.006Z,76.00
2019-05-02T20:40:32.615Z,75.70
2019-05-02T20:43:37.141Z,75.80
2019-05-02T20:46:42.126Z,75.70
2019-05-02T20:49:47.977Z,76.20
2019-05-02T20:52:52.636Z,76.00
2019-05-02T20:55:57.180Z,75.30
2019-05-02T20:59:02.311Z,74.80
2019-05-02T21:02:08.302Z,74.40
2019-05-02T21:05:19.737Z,74.50
2019-05-02T21:08:43.660Z,75.10
2019-05-02T21:11:53.126Z,75.60
2019-05-02T21:14:57.722Z,76.00
2019-05-02T21:18:03.039Z,76.10
2019-05-02T21:21:07.630Z,76.00
2019-05-02T21:24:12.226Z,75.80
2019-05-02T21:27:17.300Z,75.30
2019-05-02T21:30:32.245Z,75.10
2019-05-02T21:33:42.794Z,75.20
2019-05-02T21:36:47.304Z,75.80
2019-05-02T21:39:52.139Z,76.70
2019-05-02T21:42:56.857Z,75.60
2019-05-02T21:46:02.378Z,75.30
2019-05-02T21:49:07.213Z,75.40
2019-05-02T21:52:36.486Z,75.20
2019-05-02T21:55:58.738Z,74.70
2019-05-02T21:59:12.289Z,74.50
2019-05-02T22:02:19.634Z,73.80
2019-05-02T22:05:25.544Z,73.50
2019-05-02T22:08:32.168Z,73.90
2019-05-02T22:11:36.372Z,74.10
2019-05-02T22:14:42.139Z,74.20
2019-05-02T22:18:06.274Z,73.50
2019-05-02T22:21:12.295Z,73.60
2019-05-02T22:24:16.987Z,73.80
2019-05-02T22:27:22.338Z,73.10
2019-05-02T22:30:26.897Z,72.80
2019-05-02T22:33:32.804Z,73.00
2019-05-02T22:36:37.845Z,73.10
2019-05-02T22:39:56.120Z,72.40
2019-05-02T22:43:01.942Z,72.50
2019-05-02T22:46:08.549Z,72.30
2019-05-02T22:49:14.912Z,73.30
2019-05-02T22:52:21.781Z,73.20
2019-05-02T22:55:26.588Z,72.50
2019-05-02T22:58:32.672Z,73.00
2019-05-02T23:01:38.607Z,72.30
2019-05-02T23:04:44.533Z,72.10
2019-05-02T23:07:49.033Z,72.80
2019-05-02T23:10:54.122Z,71.90
2019-05-02T23:13:58.782Z,72.20
2019-05-02T23:17:03.589Z,71.90
2019-05-02T23:20:09.016Z,71.70
2019-05-02T23:23:13.586Z,71.00
2019-05-02T23:26:52.307Z,71.30
2019-05-02T23:29:56.991Z,71.80
2019-05-02T23:33:23.416Z,72.40
2019-05-02T23:36:27.591Z,72.30
2019-05-02T23:39:32.400Z,73.30
2019-05-02T23:42:41.738Z,72.10
2019-05-02T23:45:46.785Z,72.30
2019-05-02T23:48:52.648Z,72.30
2019-05-02T23:51:57.616Z,72.60
2019-05-02T23:55:02.998Z,72.70
2019-05-02T23:58:08.843Z,72.90
